Nearby METAR Reports

 

KSJC - San Jose, California, USA
Distance from station: NØ 14km
Oppdatert: 21/09/2020 17:53
Overskyet
Overskyet
 Vind fra calm
Vind: Stille
Temperatur: 18°C
Duggpunkt: 13°C
Fuktighet: 73%
Barometer: 1013.5 hPa
Clouds: Overskyet
Visibility: 11 km
Cloud details: Few Clouds 30 m
Few Clouds 366 m
Overskyet 1524 m
2020/09/21 15:53 KSJC 211553Z 00000KT 7SM FEW001 FEW012 OVC050 18/13 A2993 RMK AO2 SLP134 FU FEW001 FU FEW012 FU OVC050 T01830128
KNUQ - Moffett Nas/Mtn, California, USA
Distance from station: N 14km
Oppdatert: 21/09/2020 15:55
NOT Current
Klart
Klart
 Vind fra calm
Vind: Stille
Temperatur: 15°C
Duggpunkt: 13°C
Fuktighet: 88%
Barometer: 1012.9 hPa
Clouds: Klart
Visibility: 14 km
2020/09/21 13:55 KNUQ 211355Z AUTO 00000KT 9SM CLR 15/13 A2991 RMK AO2
 
KPAO - Palo Alto, California, USA
Distance from station: NNV 23km
Oppdatert: 21/09/2020 17:47
Few Clouds
Few Clouds
 Vind fra calm
Vind: Stille
Temperatur: 17°C
Duggpunkt: 14°C
Fuktighet: 83%
Barometer: 1013.9 hPa
Clouds: Few Clouds
Visibility: 13 km
Cloud details: Few Clouds 610 m
2020/09/21 15:47 KPAO 211547Z 00000KT 8SM FEW020 17/14 A2994
KRHV - San Jose/Reid, California, USA
Distance from station: ØNØ 19km
Oppdatert: 21/09/2020 18:47
Klart
Klart
 Vind fra calm
Vind: Stille
Temperatur: 20°C
Duggpunkt: 13°C
Fuktighet: 64%
Barometer: 1013.9 hPa
Clouds: Klart
Visibility: 16 km
2020/09/21 16:47 KRHV 211647Z 00000KT 10SM SKC 20/13 A2994
 
KOAK - Oakland, California, USA
Distance from station: NNV 50km
Oppdatert: 21/09/2020 17:53
Few Clouds
Few Clouds
 Vind fra calm
Vind: Stille
Temperatur: 18°C
Duggpunkt: 14°C
Fuktighet: 78%
Barometer: 1013.9 hPa
Clouds: Few Clouds
Visibility: 16 km
Cloud details: Few Clouds 183 m
Few Clouds 366 m
2020/09/21 15:53 KOAK 211553Z 00000KT 10SM FEW006 FEW012 18/14 A2994 RMK AO2 SLP137 T01830144
KSQL - San Carlos Airpo, California, USA
Distance from station: NV 34km
Oppdatert: 21/09/2020 17:51
Few Clouds
Few Clouds
 Vind fra calm
Vind: Stille
Temperatur: 17°C
Duggpunkt: 15°C
Fuktighet: 88%
Barometer: 1013.9 hPa
Clouds: Few Clouds
Visibility: 11 km
Cloud details: Few Clouds 305 m
2020/09/21 15:51 KSQL 211551Z 00000KT 7SM FEW010 17/15 A2994
 
KSFO - San Francisco, California, USA
Distance from station: NV 49km
Oppdatert: 21/09/2020 17:56
Few Clouds
Few Clouds
 Vind fra VNV
Vind: VNV 7 km/h
Temperatur: 17°C
Duggpunkt: 13°C
Fuktighet: 77%
Barometer: 1013.5 hPa
Clouds: Few Clouds
Visibility: 14 km
Cloud details: Few Clouds 213 m
2020/09/21 15:56 KSFO 211556Z 29004KT 9SM FEW007 17/13 A2993 RMK AO2 SLP136 T01670128
KE16 - San Martin, California, USA
Distance from station: ØSØ 43km
Oppdatert: 21/09/2020 18:30
Klart
Klart
 Vind fra S
Vind: S 13 km/h
Temperatur: 17°C
Duggpunkt: 11°C
Fuktighet: 68%
Barometer: 1014.9 hPa
Clouds: Klart
Visibility: 16 km
2020/09/21 16:30 KE16 211630Z AUTO 17007KT 10SM CLR 17/11 A2997 RMK AO2 PWINO PNO
 
KWVI - Watsonville, California, USA
Distance from station: SSØ 44km
Oppdatert: 21/09/2020 18:05
Mist, Overskyet
Mist, Overskyet
 Vind fra S
Vind: S 7 km/h
Temperatur: 13°C
Duggpunkt: 13°C
Fuktighet: 100%
Barometer: 1014.6 hPa
Oversikt: Mist
Clouds: Overskyet
Visibility: 5 km
Cloud details: Overskyet 61 m
2020/09/21 16:05 KWVI 211605Z AUTO 18004KT 3SM BR OVC002 13/13 A2996 RMK AO2 T01330133
KHAF - Half Moon Bay, California, USA
Distance from station: VNV 50km
Oppdatert: 21/09/2020 18:35
Mist, Overskyet
Mist, Overskyet
 Vind fra SSV
Vind: SSV 6 km/h
Temperatur: 15°C
Duggpunkt: 13°C
Fuktighet: 88%
Barometer: 1014.9 hPa
Oversikt: Mist
Clouds: Overskyet
Visibility: 8 km
Cloud details: Overskyet 183 m
2020/09/21 16:35 KHAF 211635Z AUTO 20003KT 5SM BR OVC006 15/13 A2997 RMK AO2
 
KHWD - Hayward, California, USA
Distance from station: N 44km
Oppdatert: 21/09/2020 17:54
Haze, Klart
Haze, Klart
 Vind fra calm
Vind: Stille
Temperatur: 18°C
Duggpunkt: 14°C
Fuktighet: 78%
Barometer: 1013.5 hPa
Oversikt: Haze
Clouds: Klart
Visibility: 10 km
2020/09/21 15:54 KHWD 211554Z 00000KT 6SM HZ CLR 18/14 A2993 RMK AO2 SLP144 T01830144
KLVK - Livermore, California, USA
Distance from station: NNØ 51km
Oppdatert: 21/09/2020 17:53
Haze, Klart
Haze, Klart
 Vind fra calm
Vind: Stille
Temperatur: 19°C
Duggpunkt: 9°C
Fuktighet: 52%
Barometer: 1013.5 hPa
Oversikt: Haze
Clouds: Klart
Visibility: 10 km
2020/09/21 15:53 KLVK 211553Z 00000KT 6SM HZ CLR 19/09 A2993 RMK AO2 SLP129 T01940094